Flight Track Log - Related Links

Times and Time Zones

All times are in EDT time to prevent confusion due to time zone crossing. See the SWA2182 flight status page for this flight to view local times or setup timezone preferences in your user account.

Time Position Orientation Groundspeed Altitude Reporting Facility
EDT Latitude Longitude Course Direction KTS km/h meters Rate Location/Type
Mon 09:08:56 38.7500 -121.5833 134° Southeast 192 356 853  Level Northern Cal TRACON
Mon 09:09:56 38.7000 -121.5333 142° Southeast 238 441 1,768 847 Climbing Northern Cal TRACON
Mon 09:10:44 38.6500 -121.5000 152° Southeast 273 505 2,377 789 Climbing Northern Cal TRACON
Mon 09:12:15 38.5781 -121.3553 122° Southeast 327 605 3,597 896 Climbing Oakland Center
Mon 09:13:17 38.5203 -121.2439 124° Southeast 366 678 4,663 1,013 Climbing Oakland Center
Mon 09:14:00 38.3370 -121.3028 134° Southeast  Level Estimated
Mon 09:14:16 38.4544 -121.1156 123° Southeast 408 756 5,639  Level Oakland Center
Mon 09:15:16 38.3686 -121.0053 135° Southeast 446 826 6,462 877 Climbing Oakland Center
Mon 09:16:17 38.2536 -120.9344 154° Southeast 456 845 7,407 922 Climbing Oakland Center
Mon 09:17:17 38.1369 -120.8611 154° Southeast 464 859 8,321 771 Climbing Oakland Center
Mon 09:18:18 38.0178 -120.7867 154° Southeast 473 875 8,961 620 Climbing Oakland Center
Mon 09:19:18 37.8950 -120.7125 155° Southeast 485 898 9,571 594 Climbing Oakland Center
Mon 09:20:18 37.7678 -120.6347 154° Southeast 503 932 10,150 604 Climbing Oakland Center
Mon 09:21:19 37.6417 -120.5592 155° Southeast 501 929 10,790 559 Climbing Oakland Center
Mon 09:22:19 37.5158 -120.4819 154° Southeast 502 930 11,278 484 Climbing Oakland Center
Mon 09:23:20 37.3908 -120.4069 155° Southeast 497 921 11,765 423 Climbing Oakland Center
Mon 09:24:20 37.2639 -120.3356 156° South 500 925 12,131 333 Climbing Oakland Center
Mon 09:25:21 37.1392 -120.2600 154° Southeast 495 917 12,436 180 Climbing Oakland Center
Mon 09:26:22 37.0136 -120.1861 155° Southeast 497 921 12,497 30 Climbing Oakland Center
Mon 09:27:22 36.9031 -120.1203 155° Southeast 491 909 12,497  Level Oakland Center
Mon 09:28:23 36.7789 -120.0464 155° Southeast 491 909 12,497  Level Oakland Center
Mon 09:29:23 36.6311 -119.9586 155° Southeast 489 906 12,497  Level Oakland Center
Mon 09:30:24 36.5092 -119.8867 155° Southeast 485 898 12,497  Level Oakland Center
Mon 09:31:25 36.3872 -119.8147 155° Southeast 482 893 12,497  Level Oakland Center
Mon 09:32:25 36.2656 -119.7444 155° Southeast 481 892 12,497  Level Oakland Center
Mon 09:33:26 36.1439 -119.6736 155° Southeast 480 888 12,497  Level Oakland Center
Mon 09:34:27 36.0225 -119.6036 155° Southeast 479 887 12,497  Level Oakland Center
Mon 09:35:27 35.9039 -119.5358 155° Southeast 468 867 12,497  Level Oakland Center
Mon 09:36:28 35.7811 -119.4664 155° Southeast 479 887 12,497  Level Oakland Center
Mon 09:37:29 35.6578 -119.3944 155° Southeast 485 898 12,497  Level Oakland Center
Mon 09:38:31 35.5367 -119.3264 155° Southeast 478 885 12,497  Level Los Angeles Center
Mon 09:39:32 35.4139 -119.2567 155° Southeast 481 892 12,497  Level Los Angeles Center
Mon 09:40:33 35.2944 -119.1889 155° Southeast 476 882 12,497  Level Los Angeles Center
Mon 09:41:34 35.1742 -119.1208 155° Southeast 474 877 12,497  Level Los Angeles Center
Mon 09:42:36 35.0542 -119.0533 155° Southeast 473 875 12,497  Level Los Angeles Center
Mon 09:43:37 34.9342 -118.9864 155° Southeast 474 877 12,497  Level Los Angeles Center
Mon 09:44:38 34.8003 -118.9111 155° Southeast 476 882 12,497  Level Los Angeles Center
Mon 09:45:40 34.6808 -118.8447 155° Southeast 472 874 12,497  Level Los Angeles Center
Mon 09:46:41 34.5617 -118.7800 156° South 470 871 12,497  Level Los Angeles Center
Mon 09:47:42 34.4417 -118.7136 155° Southeast 473 875 12,497  Level Los Angeles Center
Mon 09:48:44 34.3231 -118.6483 156° South 470 871 12,497  Level Los Angeles Center
Mon 09:49:45 34.2053 -118.5831 155° Southeast 467 864 12,497 -54 Level Los Angeles Center
Mon 09:50:59 34.0636 -118.5053 156° South 466 863 12,375 -473 Descending Los Angeles Center
Mon 09:52:12 33.9239 -118.4158 152° Southeast 481 892 11,339 -935 Descending Los Angeles Center
Mon 09:53:14 33.8086 -118.2783 135° Southeast 493 912 10,272 -922 Descending Los Angeles Center
Mon 09:54:15 33.7081 -118.1436 132° Southeast 496 919 9,449 -446 Descending Los Angeles Center
Mon 09:55:17 33.6153 -118.0258 133° Southeast 486 900 9,357 -535 Descending Los Angeles Center
Mon 09:56:18 33.5233 -117.9100 134° Southeast 479 887 8,352 -952 Descending Los Angeles Center
Mon 09:57:20 33.4314 -117.7942 134° Southeast 480 888 7,407 -990 Descending Los Angeles Center
Mon 09:57:43 33.3833 -117.7500 142° Southeast 476 882 6,949 -989 Descending Southern California TRACON
Mon 09:58:21 33.3406 -117.6806 126° Southeast 473 875 6,401 -965 Descending Los Angeles Center
Mon 09:58:55 33.2833 -117.6000 130° Southeast 463 858 5,791 -778 Descending Southern California TRACON
Mon 09:59:55 33.1833 -117.5333 151° Southeast 435 806 5,182 -549 Descending Southern California TRACON
Mon 10:00:55 33.0833 -117.4500 145° Southeast 387 716 4,694 -462 Descending Southern California TRACON
Mon 10:01:26 33.0583 -117.4344 152° Southeast 390 723 4,481 -676 Descending Los Angeles Center
Mon 10:02:27 32.9536 -117.3553 148° Southeast 374 692 3,658 -712 Descending Los Angeles Center
Mon 10:03:01 32.9167 -117.3167 139° Southeast 367 679 3,353 -353 Descending Southern California TRACON
Mon 10:03:55 32.8667 -117.2167 121° Southeast 349 647 3,139 -308 Descending Southern California TRACON
Mon 10:04:30 32.8525 -117.1581 106° East 357 661 2,896 -457 Descending Los Angeles Center
Mon 10:04:55 32.8333 -117.1167 119° Southeast 371 687 2,682 -452 Descending Southern California TRACON
Mon 10:05:55 32.8000 -117.0167 112° Southeast 319 591 2,256 -378 Descending Southern California TRACON
Mon 10:06:56 32.7667 -116.9167 112° Southeast 287 531 1,920 -296 Descending Southern California TRACON
Mon 10:07:34 32.7483 -116.8667 114° Southeast 289 536 1,768 -201 Descending Los Angeles Center
Mon 10:08:36 32.7719 -116.8083 64° Northeast 255 472 1,585 -119 Descending Los Angeles Center
Mon 10:09:37 32.8006 -116.8681 300° West 229 425 1,524 -46 Descending Los Angeles Center
Mon 10:09:55 32.8000 -116.9000 269° West 217 402 1,524  Level Southern California TRACON
Mon 10:10:50 32.7833 -116.9333 239° Southwest 234 433 1,524  Level Southern California TRACON
Mon 10:11:50 32.7167 -116.9500 192° South 232 430 1,524  Level Southern California TRACON
Mon 10:12:50 32.6500 -116.9667 192° South 237 439 1,524  Level Southern California TRACON
Mon 10:13:43 32.6161 -117.0064 225° Southwest 228 422 1,524  Level Los Angeles Center
Mon 10:14:45 32.5947 -117.0711 249° West 215 398 1,524  Level Los Angeles Center
Mon 10:15:38 32.5833 -117.1333 258° West 215 398 1,524  Level Southern California TRACON
Mon 10:16:44 32.5500 -117.2000 239° Southwest 209 388 1,524  Level Southern California TRACON
Mon 10:17:44 32.5333 -117.2667 253° West 211 391 1,524  Level Southern California TRACON
Mon 10:18:38 32.5167 -117.3167 248° West 209 388 1,524  Level Southern California TRACON
Mon 10:19:50 32.5167 -117.4000 270° West 202 373 1,524  Level Southern California TRACON
Mon 10:20:50 32.5500 -117.4500 308° West 216 401 1,524  Level Southern California TRACON
Mon 10:21:44 32.6000 -117.4500 360° North 210 389 1,524 -96 Level Southern California TRACON
Mon 10:22:44 32.6500 -117.4500 360° North 216 401 1,341 -215 Descending Southern California TRACON
Mon 10:23:09 32.6783 -117.4589 345° North 211 391 1,219 -315 Descending Los Angeles Center
Mon 10:24:11 32.7406 -117.4553 North 231 428 884 -295 Descending Los Angeles Center
Mon 10:25:13 32.7708 -117.3978 58° Northeast 224 415 610 -134 Descending Los Angeles Center
Mon 10:26:14 32.7714 -117.3456 89° East 176 327 610 -72 Level Los Angeles Center
Mon 10:27:45 32.7500 -117.2667 108° East 134 248 427 -148 Descending Southern California TRACON
Mon 10:28:18 32.7478 -117.2528 101° East 145 269 305 -233 Descending Los Angeles Center
Mon 10:29:19 32.7392 -117.2139 105° East 132 245 61 -240 Descending Los Angeles Center

Login

Don't have an account? Register now (free) for customized features, flight alerts, and more!